createdAt,value
2022-10-14T00:02:54.656Z,95643.25
2022-10-14T00:05:56.637Z,95641.31
2022-10-14T00:09:00.989Z,95629.59
2022-10-14T00:12:03.090Z,95626.94
2022-10-14T00:15:06.292Z,95625.41
2022-10-14T00:18:10.010Z,95620.72
2022-10-14T00:21:12.314Z,95620.25
2022-10-14T00:24:16.326Z,95620.31
2022-10-14T00:27:18.531Z,95622.97
2022-10-14T00:30:21.003Z,95615.31
2022-10-14T00:33:25.030Z,95624.97
2022-10-14T00:36:27.452Z,95633.38
2022-10-14T00:39:29.392Z,95637.22
2022-10-14T00:42:32.959Z,95633.38
2022-10-14T00:45:35.032Z,95629.91
2022-10-14T00:48:38.413Z,95626.00
2022-10-14T00:51:42.678Z,95629.56
2022-10-14T00:54:50.037Z,95631.19
2022-10-14T00:57:52.113Z,95631.22
2022-10-14T01:00:54.138Z,95637.03
2022-10-14T01:03:57.569Z,95634.69
2022-10-14T01:07:06.828Z,95637.47
2022-10-14T01:10:14.597Z,95641.31
2022-10-14T01:13:25.343Z,95642.13
2022-10-14T01:16:37.496Z,95644.84
2022-10-14T01:20:07.627Z,95635.19
2022-10-14T01:23:36.670Z,95638.69
2022-10-14T01:26:56.941Z,95641.78
2022-10-14T01:30:09.227Z,95649.91
2022-10-14T01:33:16.381Z,95658.75
2022-10-14T01:36:23.803Z,95666.47
2022-10-14T01:39:29.772Z,95684.59
2022-10-14T01:42:35.043Z,95698.09
2022-10-14T01:45:41.870Z,95707.31
2022-10-14T01:48:48.411Z,95702.34
2022-10-14T01:51:54.492Z,95696.63
2022-10-14T01:55:01.929Z,95681.97
2022-10-14T01:58:05.823Z,95689.69
2022-10-14T02:01:10.089Z,95676.16
2022-10-14T02:04:16.908Z,95669.97
2022-10-14T02:07:24.436Z,95661.06
2022-10-14T02:10:38.324Z,95659.16
2022-10-14T02:14:00.401Z,95643.69
2022-10-14T02:17:10.206Z,95639.44
2022-10-14T02:20:23.311Z,95635.91
2022-10-14T02:23:30.675Z,95626.22
2022-10-14T02:26:34.031Z,95627.41
2022-10-14T02:29:38.448Z,95634.72
2022-10-14T02:32:42.825Z,95640.88
2022-10-14T02:35:45.166Z,95645.91
2022-10-14T02:38:48.562Z,95659.78
2022-10-14T02:41:50.826Z,95671.78
2022-10-14T02:44:54.161Z,95674.88
2022-10-14T02:47:57.532Z,95673.34
2022-10-14T02:50:59.645Z,95669.16
2022-10-14T02:54:01.834Z,95676.03
2022-10-14T02:57:03.835Z,95672.22
2022-10-14T03:00:06.915Z,95677.25
2022-10-14T03:03:10.285Z,95669.16
2022-10-14T03:06:12.174Z,95654.44
2022-10-14T03:09:14.141Z,95651.69
2022-10-14T03:12:16.278Z,95655.53
2022-10-14T03:15:18.288Z,95655.97
2022-10-14T03:18:21.586Z,95656.38
2022-10-14T03:21:23.563Z,95657.91
2022-10-14T03:24:25.946Z,95665.66
2022-10-14T03:27:28.002Z,95665.69
2022-10-14T03:30:29.988Z,95678.09
2022-10-14T03:33:33.910Z,95680.41
2022-10-14T03:36:35.963Z,95680.41
2022-10-14T03:39:37.890Z,95665.72
2022-10-14T03:42:40.946Z,95674.66
2022-10-14T03:45:44.625Z,95667.28
2022-10-14T03:48:48.146Z,95660.31
2022-10-14T03:51:50.093Z,95668.84
2022-10-14T03:54:52.064Z,95670.00
2022-10-14T03:57:53.981Z,95666.53
2022-10-14T04:00:56.060Z,95668.84
2022-10-14T04:03:59.377Z,95666.13
2022-10-14T04:07:01.424Z,95662.28
2022-10-14T04:10:04.373Z,95660.72
2022-10-14T04:13:06.350Z,95659.19
2022-10-14T04:16:10.567Z,95660.38
2022-10-14T04:19:13.965Z,95658.03
2022-10-14T04:22:15.908Z,95663.44
2022-10-14T04:25:17.827Z,95657.25
2022-10-14T04:28:19.842Z,95658.03
2022-10-14T04:31:21.982Z,95661.53
2022-10-14T04:34:25.392Z,95653.78
2022-10-14T04:37:27.340Z,95661.91
2022-10-14T04:40:29.293Z,95658.41
2022-10-14T04:43:31.547Z,95654.91
2022-10-14T04:46:33.476Z,95664.22
2022-10-14T04:49:37.315Z,95668.44
2022-10-14T04:52:39.227Z,95657.25
2022-10-14T04:55:41.183Z,95658.81
2022-10-14T04:58:43.059Z,95656.88
2022-10-14T05:01:45.050Z,95656.50
2022-10-14T05:04:48.368Z,95656.13
2022-10-14T05:07:50.361Z,95646.44
2022-10-14T05:10:52.244Z,95651.09
2022-10-14T05:13:54.164Z,95648.38
2022-10-14T05:16:56.336Z,95647.22
2022-10-14T05:19:59.656Z,95642.56
2022-10-14T05:23:01.602Z,95636.78
2022-10-14T05:26:04.084Z,95639.88
2022-10-14T05:29:06.322Z,95645.28
2022-10-14T05:32:08.592Z,95631.00
2022-10-14T05:35:12.060Z,95634.84
2022-10-14T05:38:14.094Z,95636.00
2022-10-14T05:41:16.017Z,95632.50
2022-10-14T05:44:17.946Z,95624.78
2022-10-14T05:47:19.857Z,95624.03
2022-10-14T05:50:23.248Z,95633.69
2022-10-14T05:53:25.276Z,95629.03
2022-10-14T05:56:27.399Z,95636.41
2022-10-14T05:59:29.419Z,95625.56
2022-10-14T06:02:31.663Z,95619.75
2022-10-14T06:05:36.691Z,95624.03
2022-10-14T06:08:38.665Z,95619.38
2022-10-14T06:11:40.981Z,95620.91
2022-10-14T06:14:42.899Z,95618.59
2022-10-14T06:17:44.838Z,95624.03
2022-10-14T06:20:53.027Z,95622.88
2022-10-14T06:23:54.992Z,95620.56
2022-10-14T06:26:57.500Z,95622.09
2022-10-14T06:29:59.582Z,95615.50
2022-10-14T06:33:01.698Z,95623.25
2022-10-14T06:36:06.604Z,95628.66
2022-10-14T06:39:09.626Z,95628.66
2022-10-14T06:42:13.248Z,95630.22
2022-10-14T06:45:15.608Z,95634.09
2022-10-14T06:48:17.579Z,95627.50
2022-10-14T06:51:21.019Z,95629.44
2022-10-14T06:54:22.999Z,95638.72
2022-10-14T06:57:25.046Z,95635.25
2022-10-14T07:00:27.026Z,95628.66
2022-10-14T07:03:29.194Z,95636.78
2022-10-14T07:06:32.781Z,95636.00
2022-10-14T07:09:34.909Z,95633.28
2022-10-14T07:12:36.934Z,95634.84
2022-10-14T07:15:39.533Z,95632.91
2022-10-14T07:18:41.483Z,95639.88
2022-10-14T07:21:44.932Z,95638.72
2022-10-14T07:24:46.999Z,95639.47
2022-10-14T07:27:48.972Z,95646.84
2022-10-14T07:30:57.565Z,95648.75
2022-10-14T07:34:00.473Z,95644.53
2022-10-14T07:37:04.399Z,95641.44
2022-10-14T07:40:07.387Z,95642.97
2022-10-14T07:43:09.394Z,95645.31
2022-10-14T07:46:12.503Z,95644.91
2022-10-14T07:49:17.894Z,95645.69
2022-10-14T07:52:21.287Z,95645.66
2022-10-14T07:55:23.256Z,95652.63
2022-10-14T07:58:27.469Z,95644.91
2022-10-14T08:01:30.762Z,95650.69
2022-10-14T08:04:32.761Z,95650.31
2022-10-14T08:07:36.196Z,95648.78
2022-10-14T08:10:38.798Z,95657.28
2022-10-14T08:13:45.057Z,95657.66
2022-10-14T08:16:48.255Z,95651.47
2022-10-14T08:19:50.549Z,95656.50
2022-10-14T08:22:53.913Z,95653.41
2022-10-14T08:25:55.890Z,95656.88
2022-10-14T08:28:58.859Z,95658.41
2022-10-14T08:32:00.874Z,95657.28
2022-10-14T08:35:02.847Z,95649.53
2022-10-14T08:38:06.204Z,95646.44
2022-10-14T08:41:24.948Z,95644.84
2022-10-14T08:44:35.576Z,95640.63
2022-10-14T08:47:41.446Z,95639.47
2022-10-14T08:50:47.938Z,95641.03
2022-10-14T08:53:55.844Z,95639.44
2022-10-14T08:56:58.929Z,95638.25
2022-10-14T09:00:00.869Z,95633.19
2022-10-14T09:03:11.577Z,95640.94
2022-10-14T09:06:19.671Z,95644.78
2022-10-14T09:09:27.204Z,95636.25
2022-10-14T09:12:32.963Z,95631.94
2022-10-14T09:15:38.692Z,95632.31
2022-10-14T09:18:45.534Z,95634.66
2022-10-14T09:21:53.328Z,95628.81
2022-10-14T09:24:58.046Z,95625.69
2022-10-14T09:28:00.122Z,95630.31
2022-10-14T09:31:02.241Z,95622.59
2022-10-14T09:34:04.188Z,95624.06
2022-10-14T09:37:23.112Z,95624.84
2022-10-14T09:40:30.182Z,95622.22
2022-10-14T09:43:32.167Z,95616.75
2022-10-14T09:46:34.245Z,95611.59
2022-10-14T09:49:40.848Z,95619.31
2022-10-14T09:52:42.844Z,95621.25
2022-10-14T09:55:49.759Z,95619.28
2022-10-14T09:58:53.834Z,95621.53
2022-10-14T10:01:57.764Z,95620.31
2022-10-14T10:05:11.955Z,95613.28
2022-10-14T10:08:18.694Z,95613.91
2022-10-14T10:11:29.936Z,95610.41
2022-10-14T10:14:33.825Z,95608.06
2022-10-14T10:17:40.003Z,95600.63
2022-10-14T10:20:41.996Z,95602.16
2022-10-14T10:23:52.562Z,95600.66
2022-10-14T10:26:55.913Z,95608.78
2022-10-14T10:30:14.952Z,95600.84
2022-10-14T10:33:32.455Z,95595.72
2022-10-14T10:36:37.884Z,95592.28
2022-10-14T10:39:50.304Z,95582.84
2022-10-14T10:43:10.789Z,95592.44
2022-10-14T10:46:32.742Z,95581.16
2022-10-14T10:50:00.606Z,95577.16
2022-10-14T10:53:20.343Z,95573.91
2022-10-14T10:56:31.040Z,95567.63
2022-10-14T10:59:46.566Z,95572.22
2022-10-14T11:03:09.293Z,95567.16
2022-10-14T11:06:21.458Z,95566.88
2022-10-14T11:09:30.431Z,95552.22
2022-10-14T11:12:39.543Z,95547.72
2022-10-14T11:15:50.441Z,95546.09
2022-10-14T11:19:04.595Z,95542.16
2022-10-14T11:22:15.964Z,95542.97
2022-10-14T11:25:25.590Z,95532.19
2022-10-14T11:28:37.232Z,95523.59
2022-10-14T11:31:48.599Z,95525.16
2022-10-14T11:35:05.320Z,95518.91
2022-10-14T11:38:30.299Z,95514.50
2022-10-14T11:41:43.989Z,95506.50
2022-10-14T11:44:46.271Z,95511.16
2022-10-14T11:47:53.497Z,95500.28
2022-10-14T11:50:59.892Z,95504.06
2022-10-14T11:54:05.784Z,95505.22
2022-10-14T11:57:18.948Z,95503.25
2022-10-14T12:00:23.970Z,95495.81
2022-10-14T12:03:42.606Z,95500.59
2022-10-14T12:06:48.935Z,95489.97
2022-10-14T12:09:59.068Z,95487.16
2022-10-14T12:13:02.492Z,95488.72
2022-10-14T12:16:07.928Z,95487.25
2022-10-14T12:19:14.543Z,95483.81
2022-10-14T12:22:21.911Z,95475.97
2022-10-14T12:25:28.010Z,95470.00
2022-10-14T12:28:30.971Z,95466.06
2022-10-14T12:31:35.440Z,95460.25
2022-10-14T12:34:41.363Z,95462.25
2022-10-14T12:38:03.905Z,95459.28
2022-10-14T12:41:38.079Z,95451.38
2022-10-14T12:44:45.413Z,95444.88
2022-10-14T12:48:00.683Z,95445.59
2022-10-14T12:51:13.741Z,95442.31
2022-10-14T12:54:16.527Z,95438.84
2022-10-14T12:57:26.754Z,95439.31
2022-10-14T13:00:39.220Z,95440.22
2022-10-14T13:03:45.427Z,95439.09
2022-10-14T13:07:43.309Z,95435.41
2022-10-14T13:10:47.682Z,95430.66
2022-10-14T13:13:57.791Z,95428.28
2022-10-14T13:17:00.351Z,95424.09
2022-10-14T13:20:02.350Z,95425.56
2022-10-14T13:23:27.652Z,95416.97
2022-10-14T13:26:41.026Z,95413.81
2022-10-14T13:30:00.825Z,95414.25
2022-10-14T13:33:12.871Z,95407.03
2022-10-14T13:36:19.908Z,95403.19
2022-10-14T13:39:23.956Z,95407.31
2022-10-14T13:42:31.541Z,95393.38
2022-10-14T13:45:38.383Z,95385.13
2022-10-14T13:48:45.494Z,95390.59
2022-10-14T13:51:51.477Z,95383.38
2022-10-14T13:55:13.922Z,95384.03
2022-10-14T13:58:17.715Z,95380.94
2022-10-14T14:01:24.005Z,95375.50
2022-10-14T14:04:28.883Z,95376.19
2022-10-14T14:08:21.681Z,95374.09
2022-10-14T14:11:17.731Z,95376.06
2022-10-14T14:14:22.854Z,95376.91
2022-10-14T14:17:25.682Z,95370.50
2022-10-14T14:20:28.210Z,95365.03
2022-10-14T14:23:31.001Z,95371.19
2022-10-14T14:26:37.237Z,95370.84
2022-10-14T14:29:42.193Z,95365.56
2022-10-14T14:32:44.765Z,95352.59
2022-10-14T14:35:54.734Z,95367.28
2022-10-14T14:38:59.010Z,95363.03
2022-10-14T14:42:02.391Z,95360.22
2022-10-14T14:45:07.808Z,95356.91
2022-10-14T14:48:12.669Z,95353.56
2022-10-14T14:51:14.870Z,95354.25
2022-10-14T14:54:20.395Z,95349.38
2022-10-14T14:57:24.655Z,95352.81
2022-10-14T15:00:26.899Z,95353.47
2022-10-14T15:03:32.626Z,95352.72
2022-10-14T15:06:34.972Z,95360.47
2022-10-14T15:09:42.356Z,95358.06
2022-10-14T15:12:52.709Z,95351.16
2022-10-14T15:15:54.844Z,95350.88
2022-10-14T15:19:30.208Z,95356.09
2022-10-14T15:22:36.539Z,95355.38
2022-10-14T15:25:38.731Z,95357.28
2022-10-14T15:28:42.141Z,95358.88
2022-10-14T15:31:45.966Z,95361.94
2022-10-14T15:34:48.208Z,95361.75
2022-10-14T15:37:50.737Z,95360.03
2022-10-14T15:40:53.083Z,95348.00
2022-10-14T15:43:56.512Z,95355.41
2022-10-14T15:46:58.501Z,95357.50
2022-10-14T15:50:01.690Z,95351.34
2022-10-14T15:53:03.690Z,95349.56
2022-10-14T15:56:06.141Z,95354.66
2022-10-14T15:59:09.796Z,95353.00
2022-10-14T16:02:17.549Z,95349.13
2022-10-14T16:05:20.575Z,95348.53
2022-10-14T16:08:22.903Z,95344.72
2022-10-14T16:11:29.801Z,95335.88
2022-10-14T16:14:33.254Z,95341.03
2022-10-14T16:17:35.154Z,95350.53
2022-10-14T16:20:37.730Z,95348.63
2022-10-14T16:23:39.653Z,95346.47
2022-10-14T16:26:43.495Z,95350.84
2022-10-14T16:29:46.793Z,95340.69
2022-10-14T16:32:48.775Z,95346.19
2022-10-14T16:35:54.246Z,95343.63
2022-10-14T16:38:56.520Z,95349.22
2022-10-14T16:41:58.904Z,95355.38
2022-10-14T16:45:02.296Z,95357.59
2022-10-14T16:48:04.433Z,95360.69
2022-10-14T16:51:06.797Z,95363.47
2022-10-14T16:54:08.880Z,95366.59
2022-10-14T16:57:11.346Z,95367.00
2022-10-14T17:03:24.517Z,95367.75
2022-10-14T17:06:27.312Z,95372.44
2022-10-14T17:09:29.247Z,95385.31
2022-10-14T17:12:31.255Z,95383.41
2022-10-14T17:15:34.749Z,95386.47
2022-10-14T17:18:37.599Z,95375.66
2022-10-14T17:21:39.640Z,95372.66
2022-10-14T17:24:41.860Z,95375.78
2022-10-14T17:27:44.214Z,95368.41
2022-10-14T17:30:48.628Z,95369.69
2022-10-14T17:33:52.071Z,95350.31
2022-10-14T17:36:54.930Z,95348.06
2022-10-14T17:39:57.100Z,95362.25
2022-10-14T17:42:59.345Z,95364.44
2022-10-14T17:46:03.587Z,95371.81
2022-10-14T17:49:06.939Z,95377.22
2022-10-14T17:52:09.696Z,95374.44
2022-10-14T17:55:12.853Z,95375.84
2022-10-14T17:58:15.442Z,95370.78
2022-10-14T18:01:31.551Z,95373.84
2022-10-14T18:04:39.944Z,95379.75
2022-10-14T18:07:42.465Z,95385.50
2022-10-14T18:10:44.884Z,95390.56
2022-10-14T18:13:50.384Z,95375.78
2022-10-14T18:16:55.966Z,95373.56
2022-10-14T18:19:58.719Z,95376.72
2022-10-14T18:23:01.092Z,95376.34
2022-10-14T18:26:08.230Z,95376.03
2022-10-14T18:29:14.029Z,95381.31
2022-10-14T18:32:18.036Z,95371.91
2022-10-14T18:35:20.993Z,95364.97
2022-10-14T18:38:23.284Z,95357.81
2022-10-14T18:41:27.170Z,95353.97
2022-10-14T18:44:29.624Z,95355.25
2022-10-14T18:47:35.776Z,95365.84
2022-10-14T18:50:37.853Z,95368.63
2022-10-14T18:53:42.742Z,95372.34
2022-10-14T18:56:45.709Z,95372.03
2022-10-14T18:59:50.471Z,95374.06
2022-10-14T19:02:54.672Z,95378.00
2022-10-14T19:05:58.264Z,95387.84
2022-10-14T19:09:01.289Z,95374.34
2022-10-14T19:12:04.600Z,95377.88
2022-10-14T19:15:08.462Z,95364.75
2022-10-14T19:18:12.527Z,95344.56
2022-10-14T19:21:17.760Z,95351.47
2022-10-14T19:24:20.380Z,95347.16
2022-10-14T19:27:23.499Z,95333.53
2022-10-14T19:30:27.207Z,95345.56
2022-10-14T19:33:31.838Z,95344.31
2022-10-14T19:36:36.333Z,95341.91
2022-10-14T19:39:41.411Z,95338.03
2022-10-14T19:42:43.962Z,95337.97
2022-10-14T19:45:48.226Z,95334.50
2022-10-14T19:48:55.994Z,95336.72
2022-10-14T19:51:58.766Z,95336.31
2022-10-14T19:55:01.017Z,95333.63
2022-10-14T19:58:04.326Z,95325.44
2022-10-14T20:01:11.048Z,95317.97
2022-10-14T20:04:14.526Z,95319.94
2022-10-14T20:07:16.498Z,95323.06
2022-10-14T20:10:18.448Z,95327.72
2022-10-14T20:13:20.635Z,95321.59
2022-10-14T20:16:23.514Z,95330.91
2022-10-14T20:19:26.889Z,95332.97
2022-10-14T20:22:28.805Z,95332.91
2022-10-14T20:25:30.821Z,95335.25
2022-10-14T20:28:34.944Z,95333.78
2022-10-14T20:31:37.252Z,95329.13
2022-10-14T20:34:40.616Z,95328.81
2022-10-14T20:37:43.053Z,95326.50
2022-10-14T20:40:45.103Z,95339.63
2022-10-14T20:43:48.021Z,95335.72
2022-10-14T20:46:49.945Z,95330.66
2022-10-14T20:49:53.435Z,95327.59
2022-10-14T20:52:55.362Z,95330.34
2022-10-14T20:56:01.578Z,95319.16
2022-10-14T20:59:05.853Z,95319.16
2022-10-14T21:02:15.439Z,95321.06
2022-10-14T21:05:18.880Z,95309.84
2022-10-14T21:08:21.095Z,95310.53
2022-10-14T21:11:24.359Z,95309.00
2022-10-14T21:14:26.415Z,95306.00
2022-10-14T21:17:28.323Z,95309.47
2022-10-14T21:20:34.481Z,95303.31
2022-10-14T21:23:36.404Z,95285.91
2022-10-14T21:26:38.432Z,95291.75
2022-10-14T21:29:40.658Z,95285.44
2022-10-14T21:32:42.557Z,95284.66
2022-10-14T21:35:46.357Z,95285.84
2022-10-14T21:38:48.274Z,95294.03
2022-10-14T21:41:50.704Z,95281.59
2022-10-14T21:44:52.700Z,95278.09
2022-10-14T21:47:54.745Z,95272.69
2022-10-14T21:51:06.476Z,95273.53
2022-10-14T21:54:08.825Z,95265.75
2022-10-14T21:57:10.700Z,95261.88
2022-10-14T22:00:13.241Z,95260.31
2022-10-14T22:03:15.376Z,95255.31
2022-10-14T22:06:18.662Z,95246.75
2022-10-14T22:09:20.625Z,95240.94
2022-10-14T22:12:22.554Z,95235.94
2022-10-14T22:15:24.876Z,95242.53
2022-10-14T22:18:27.467Z,95233.59
2022-10-14T22:21:34.485Z,95231.72
2022-10-14T22:24:36.426Z,95229.56
2022-10-14T22:27:38.320Z,95227.72
2022-10-14T22:30:40.226Z,95223.16
2022-10-14T22:33:42.355Z,95214.59
2022-10-14T22:36:45.849Z,95220.81
2022-10-14T22:39:47.866Z,95218.88
2022-10-14T22:42:51.421Z,95220.41
2022-10-14T22:45:58.822Z,95218.88
2022-10-14T22:49:00.959Z,95207.97
2022-10-14T22:52:04.550Z,95213.44
2022-10-14T22:55:08.064Z,95207.97
2022-10-14T22:58:09.990Z,95201.78
2022-10-14T23:01:14.295Z,95196.75
2022-10-14T23:04:16.492Z,95192.56
2022-10-14T23:07:20.016Z,95193.00
2022-10-14T23:10:21.940Z,95184.84
2022-10-14T23:13:23.885Z,95187.50
2022-10-14T23:16:27.882Z,95184.00
2022-10-14T23:19:30.067Z,95186.34
2022-10-14T23:22:34.922Z,95177.06
2022-10-14T23:25:39.927Z,95186.75
2022-10-14T23:28:42.114Z,95179.09
2022-10-14T23:31:44.040Z,95177.94
2022-10-14T23:34:46.015Z,95177.91
2022-10-14T23:37:49.328Z,95175.63
2022-10-14T23:40:51.503Z,95172.50
2022-10-14T23:43:53.490Z,95172.50
2022-10-14T23:46:55.529Z,95173.34
2022-10-14T23:49:57.456Z,95172.56
2022-10-14T23:53:01.216Z,95166.88
2022-10-14T23:56:03.790Z,95160.75
2022-10-14T23:59:05.771Z,95161.88
